createdAt,value
2023-05-05T00:00:03.669Z,5.80
2023-05-05T00:00:15.442Z,5.60
2023-05-05T00:00:26.146Z,5.40
2023-05-05T00:00:39.064Z,5.10
2023-05-05T00:00:50.764Z,5.40
2023-05-05T00:01:03.184Z,5.30
2023-05-05T00:01:13.939Z,5.20
2023-05-05T00:01:25.660Z,5.50
2023-05-05T00:01:37.483Z,6.00
2023-05-05T00:01:48.180Z,6.00
2023-05-05T00:01:58.977Z,5.50
2023-05-05T00:02:10.736Z,5.40
2023-05-05T00:02:23.913Z,5.50
2023-05-05T00:02:34.690Z,5.60
2023-05-05T00:02:47.160Z,5.70
2023-05-05T00:02:59.155Z,5.40
2023-05-05T00:03:09.994Z,5.20
2023-05-05T00:03:20.825Z,4.90
2023-05-05T00:03:32.584Z,5.40
2023-05-05T00:03:44.326Z,5.60
2023-05-05T00:03:57.560Z,5.90
2023-05-05T00:04:10.015Z,5.80
2023-05-05T00:04:20.795Z,5.80
2023-05-05T00:04:33.446Z,5.80
2023-05-05T00:04:45.621Z,5.90
2023-05-05T00:04:56.317Z,5.90
2023-05-05T00:05:09.505Z,5.70
2023-05-05T00:05:21.969Z,5.30
2023-05-05T00:05:34.128Z,4.80
2023-05-05T00:05:44.883Z,5.20
2023-05-05T00:05:57.868Z,5.40
2023-05-05T00:06:10.028Z,5.50
2023-05-05T00:06:22.247Z,5.30
2023-05-05T00:06:34.064Z,5.60
2023-05-05T00:06:44.873Z,5.70
2023-05-05T00:06:55.587Z,6.10
2023-05-05T00:07:07.250Z,5.70
2023-05-05T00:07:18.004Z,5.90
2023-05-05T00:07:28.850Z,5.80
2023-05-05T00:07:40.630Z,5.90
2023-05-05T00:07:51.409Z,5.40
2023-05-05T00:08:02.184Z,5.00
2023-05-05T00:08:14.678Z,5.00
2023-05-05T00:08:26.423Z,5.10
2023-05-05T00:08:37.194Z,5.30
2023-05-05T00:08:48.881Z,4.90
2023-05-05T00:08:59.616Z,5.20
2023-05-05T00:09:10.323Z,5.40
2023-05-05T00:09:21.096Z,5.40
2023-05-05T00:09:32.754Z,5.10
2023-05-05T00:09:44.948Z,5.30
2023-05-05T00:09:55.689Z,5.70
2023-05-05T00:10:06.810Z,5.80
2023-05-05T00:10:17.848Z,5.50
2023-05-05T00:10:29.612Z,5.50
2023-05-05T00:10:40.645Z,5.30
2023-05-05T00:10:51.337Z,4.90
2023-05-05T00:11:04.050Z,5.40
2023-05-05T00:11:14.783Z,6.00
2023-05-05T00:11:25.490Z,6.00
2023-05-05T00:11:36.255Z,5.80
2023-05-05T00:11:47.005Z,5.40
2023-05-05T00:11:58.692Z,5.50
2023-05-05T00:12:11.119Z,5.20
2023-05-05T00:12:21.857Z,5.20
2023-05-05T00:12:34.553Z,4.50
2023-05-05T00:12:46.271Z,5.00
2023-05-05T00:12:57.063Z,5.30
2023-05-05T00:13:07.797Z,5.20
2023-05-05T00:13:18.516Z,5.40
2023-05-05T00:13:30.159Z,5.40
2023-05-05T00:13:42.583Z,5.30
2023-05-05T00:13:54.364Z,5.40
2023-05-05T00:14:05.058Z,5.70
2023-05-05T00:14:15.781Z,5.40
2023-05-05T00:14:27.452Z,5.30
2023-05-05T00:14:38.181Z,4.90
2023-05-05T00:14:48.893Z,4.90
2023-05-05T00:14:59.609Z,5.10
2023-05-05T00:15:10.292Z,5.30
2023-05-05T00:15:21.014Z,5.00
2023-05-05T00:15:33.396Z,5.10
2023-05-05T00:15:45.799Z,5.00
2023-05-05T00:15:57.499Z,5.40
2023-05-05T00:16:08.238Z,5.80
2023-05-05T00:16:18.928Z,5.60
2023-05-05T00:16:29.644Z,5.50
2023-05-05T00:16:40.378Z,5.30
2023-05-05T00:16:51.202Z,5.20
2023-05-05T00:17:02.900Z,5.30
2023-05-05T00:17:15.428Z,5.30
2023-05-05T00:17:26.197Z,5.50
2023-05-05T00:17:37.009Z,5.60
2023-05-05T00:17:47.726Z,5.50
2023-05-05T00:17:58.565Z,5.40
2023-05-05T00:18:10.205Z,5.30
2023-05-05T00:18:20.929Z,5.30
2023-05-05T00:18:31.681Z,5.10
2023-05-05T00:18:43.894Z,5.20
2023-05-05T00:18:54.618Z,5.00
2023-05-05T00:19:06.340Z,5.00
2023-05-05T00:19:18.066Z,5.30
2023-05-05T00:19:28.746Z,5.30
2023-05-05T00:19:39.518Z,4.90
2023-05-05T00:19:50.215Z,5.10
2023-05-05T00:20:01.940Z,5.20
2023-05-05T00:20:14.150Z,5.30
2023-05-05T00:20:24.860Z,5.20
2023-05-05T00:20:35.593Z,5.30
2023-05-05T00:20:46.280Z,5.40
2023-05-05T00:20:57.019Z,5.40
2023-05-05T00:21:07.724Z,4.90
2023-05-05T00:21:18.469Z,5.00
2023-05-05T00:21:29.170Z,5.30
2023-05-05T00:21:39.917Z,5.40
2023-05-05T00:21:50.679Z,5.60
2023-05-05T00:22:01.400Z,5.40
2023-05-05T00:22:13.144Z,5.40
2023-05-05T00:22:25.345Z,5.30
2023-05-05T00:22:36.056Z,5.60
2023-05-05T00:22:47.772Z,5.60
2023-05-05T00:22:58.491Z,5.40
2023-05-05T00:23:09.253Z,5.50
2023-05-05T00:23:20.018Z,5.30
2023-05-05T00:23:31.667Z,5.30
2023-05-05T00:23:42.382Z,5.60
2023-05-05T00:23:54.092Z,5.50
2023-05-05T00:24:04.826Z,5.20
2023-05-05T00:24:16.513Z,5.00
2023-05-05T00:24:27.235Z,5.10
2023-05-05T00:24:39.690Z,5.20
2023-05-05T00:24:51.397Z,5.30
2023-05-05T00:25:03.071Z,5.80
2023-05-05T00:25:13.846Z,6.00
2023-05-05T00:25:24.544Z,6.00
2023-05-05T00:25:35.294Z,5.30
2023-05-05T00:25:47.709Z,5.10
2023-05-05T00:25:58.385Z,5.40
2023-05-05T00:26:10.117Z,5.40
2023-05-05T00:26:21.838Z,5.40
2023-05-05T00:26:32.534Z,5.40
2023-05-05T00:26:43.252Z,5.10
2023-05-05T00:26:53.960Z,5.20
2023-05-05T00:27:05.639Z,5.60
2023-05-05T00:27:16.413Z,5.80
2023-05-05T00:27:28.180Z,5.70
2023-05-05T00:27:41.084Z,5.40
2023-05-05T00:27:51.803Z,6.00
2023-05-05T00:28:02.568Z,5.80
2023-05-05T00:28:13.319Z,5.70
2023-05-05T00:28:24.050Z,5.80
2023-05-05T00:28:34.799Z,6.00
2023-05-05T00:28:46.482Z,5.40
2023-05-05T00:28:59.415Z,5.30
2023-05-05T00:29:13.125Z,4.80
2023-05-05T00:29:25.360Z,5.30
2023-05-05T00:29:37.021Z,5.80
2023-05-05T00:29:49.720Z,6.10
2023-05-05T00:30:01.406Z,6.00
2023-05-05T00:30:14.096Z,5.90
2023-05-05T00:30:27.099Z,5.50
2023-05-05T00:30:37.818Z,5.50
2023-05-05T00:30:48.541Z,5.80
2023-05-05T00:31:00.238Z,5.90
2023-05-05T00:31:12.695Z,5.70
2023-05-05T00:31:23.420Z,5.80
2023-05-05T00:31:35.677Z,5.60
2023-05-05T00:31:48.119Z,5.80
2023-05-05T00:31:58.868Z,6.10
2023-05-05T00:32:10.568Z,6.20
2023-05-05T00:32:21.303Z,5.80
2023-05-05T00:32:32.087Z,5.70
2023-05-05T00:32:44.519Z,5.30
2023-05-05T00:32:56.243Z,5.20
2023-05-05T00:33:06.997Z,5.00
2023-05-05T00:33:17.707Z,5.10
2023-05-05T00:33:29.412Z,5.00
2023-05-05T00:33:41.104Z,5.30
2023-05-05T00:33:53.601Z,5.70
2023-05-05T00:34:04.356Z,5.30
2023-05-05T00:34:15.080Z,5.40
2023-05-05T00:34:25.794Z,5.80
2023-05-05T00:34:36.515Z,5.70
2023-05-05T00:34:48.302Z,5.30
2023-05-05T00:34:58.979Z,5.10
2023-05-05T00:35:11.685Z,5.10
2023-05-05T00:35:23.895Z,5.40
2023-05-05T00:35:36.351Z,5.80
2023-05-05T00:35:48.014Z,6.00
2023-05-05T00:35:59.674Z,5.50
2023-05-05T00:36:10.383Z,5.60
2023-05-05T00:36:22.090Z,5.70
2023-05-05T00:36:32.825Z,5.60
2023-05-05T00:36:43.527Z,5.20
2023-05-05T00:36:54.245Z,5.00
2023-05-05T00:37:05.937Z,5.40
2023-05-05T00:37:18.411Z,5.20
2023-05-05T00:37:30.083Z,5.10
2023-05-05T00:37:41.779Z,5.10
2023-05-05T00:37:54.164Z,4.80
2023-05-05T00:38:05.907Z,4.80
2023-05-05T00:38:17.702Z,5.40
2023-05-05T00:38:30.407Z,5.80
2023-05-05T00:38:42.099Z,5.70
2023-05-05T00:38:52.894Z,5.90
2023-05-05T00:39:03.650Z,5.70
2023-05-05T00:39:14.400Z,5.40
2023-05-05T00:39:25.102Z,5.50
2023-05-05T00:39:36.779Z,5.70
2023-05-05T00:39:48.453Z,5.80
2023-05-05T00:40:00.959Z,5.80
2023-05-05T00:40:11.687Z,5.60
2023-05-05T00:40:23.358Z,5.80
2023-05-05T00:40:35.800Z,5.30
2023-05-05T00:40:46.521Z,5.10
2023-05-05T00:40:57.251Z,5.50
2023-05-05T00:41:07.958Z,5.50
2023-05-05T00:41:20.200Z,5.60
2023-05-05T00:41:30.905Z,5.60
2023-05-05T00:41:41.636Z,5.80
2023-05-05T00:41:54.041Z,5.50
2023-05-05T00:42:04.792Z,5.90
2023-05-05T00:42:15.554Z,5.80
2023-05-05T00:42:27.954Z,5.80
2023-05-05T00:42:38.671Z,5.80
2023-05-05T00:42:50.381Z,5.70
2023-05-05T00:43:01.131Z,5.60
2023-05-05T00:43:14.323Z,5.40
2023-05-05T00:43:26.797Z,5.30
2023-05-05T00:43:38.474Z,5.50
2023-05-05T00:43:49.164Z,5.40
2023-05-05T00:43:59.877Z,5.90
2023-05-05T00:44:10.654Z,5.80
2023-05-05T00:44:21.355Z,6.00
2023-05-05T00:44:33.063Z,6.00
2023-05-05T00:44:45.463Z,5.80
2023-05-05T00:44:57.668Z,5.80
2023-05-05T00:45:10.883Z,5.60
2023-05-05T00:45:23.287Z,5.20
2023-05-05T00:45:35.242Z,5.40
2023-05-05T00:45:45.969Z,5.40
2023-05-05T00:45:57.751Z,5.30
2023-05-05T00:46:09.516Z,5.50
2023-05-05T00:46:21.274Z,5.90
2023-05-05T00:46:32.014Z,5.90
2023-05-05T00:46:44.210Z,6.00
2023-05-05T00:46:55.885Z,5.40
2023-05-05T00:47:07.596Z,5.70
2023-05-05T00:47:19.285Z,5.70
2023-05-05T00:47:31.696Z,5.40
2023-05-05T00:47:43.407Z,5.00
2023-05-05T00:47:54.169Z,5.30
2023-05-05T00:48:04.973Z,5.90
2023-05-05T00:48:16.643Z,6.00
2023-05-05T00:48:27.346Z,5.90
2023-05-05T00:48:39.740Z,5.60
2023-05-05T00:48:51.951Z,5.50
2023-05-05T00:49:05.159Z,5.30
2023-05-05T00:49:16.891Z,5.30
2023-05-05T00:49:29.590Z,5.40
2023-05-05T00:49:40.355Z,5.60
2023-05-05T00:49:52.729Z,5.70
2023-05-05T00:50:03.462Z,5.50
2023-05-05T00:50:15.908Z,5.40
2023-05-05T00:50:28.085Z,5.20
2023-05-05T00:50:40.781Z,5.00
2023-05-05T00:50:52.542Z,4.80
2023-05-05T00:51:04.218Z,4.60
2023-05-05T00:51:15.920Z,5.40
2023-05-05T00:51:28.323Z,5.70
2023-05-05T00:51:39.987Z,5.40
2023-05-05T00:51:51.758Z,5.30
2023-05-05T00:52:04.186Z,5.10
2023-05-05T00:52:16.570Z,5.10
2023-05-05T00:52:27.346Z,5.30
2023-05-05T00:52:39.647Z,5.50
2023-05-05T00:52:50.382Z,5.40
2023-05-05T00:53:02.056Z,5.20
2023-05-05T00:53:13.750Z,5.50
2023-05-05T00:53:24.532Z,5.20
2023-05-05T00:53:36.185Z,5.20
2023-05-05T00:53:46.890Z,5.10
2023-05-05T00:53:59.168Z,5.30
2023-05-05T00:54:11.680Z,5.50
2023-05-05T00:54:22.342Z,5.20
2023-05-05T00:54:33.143Z,5.40
2023-05-05T00:54:45.590Z,5.50
2023-05-05T00:54:56.318Z,5.60
2023-05-05T00:55:08.571Z,5.20
2023-05-05T00:55:19.262Z,5.20
2023-05-05T00:55:30.069Z,5.60
2023-05-05T00:55:41.701Z,5.60
2023-05-05T00:55:52.410Z,5.30
2023-05-05T00:56:04.886Z,5.50
2023-05-05T00:56:18.058Z,5.70
2023-05-05T00:56:29.744Z,5.40
2023-05-05T00:56:42.196Z,5.40
2023-05-05T00:56:53.881Z,5.50
2023-05-05T00:57:04.589Z,5.80
2023-05-05T00:57:15.289Z,5.60
2023-05-05T00:57:27.250Z,5.30
2023-05-05T00:57:39.450Z,5.30
2023-05-05T00:57:51.863Z,5.40
2023-05-05T00:58:02.662Z,5.60
2023-05-05T00:58:15.116Z,5.00
2023-05-05T00:58:26.756Z,5.80
2023-05-05T00:58:37.510Z,5.90
2023-05-05T00:58:48.198Z,5.70
2023-05-05T00:59:00.076Z,5.50
2023-05-05T00:59:12.310Z,5.80
2023-05-05T00:59:25.205Z,5.70
2023-05-05T00:59:36.884Z,5.40
2023-05-05T00:59:47.639Z,5.10
2023-05-05T01:00:00.115Z,5.10
2023-05-05T01:00:13.286Z,5.30
2023-05-05T01:00:24.057Z,5.00
2023-05-05T01:00:34.743Z,5.00
2023-05-05T01:00:47.125Z,5.00
2023-05-05T01:00:57.885Z,5.10
2023-05-05T01:01:09.589Z,5.20
2023-05-05T01:01:21.397Z,5.40
2023-05-05T01:01:32.116Z,5.40
2023-05-05T01:01:45.298Z,5.20
2023-05-05T01:01:56.083Z,5.30
2023-05-05T01:02:06.790Z,5.30
2023-05-05T01:02:17.538Z,5.10
2023-05-05T01:02:30.034Z,5.00
2023-05-05T01:02:40.826Z,5.30
2023-05-05T01:02:52.844Z,5.50
2023-05-05T01:03:03.870Z,5.40
2023-05-05T01:03:14.661Z,5.50
2023-05-05T01:03:25.486Z,5.80
2023-05-05T01:03:37.598Z,5.50
2023-05-05T01:03:49.404Z,4.90
2023-05-05T01:04:01.718Z,4.80
2023-05-05T01:04:12.505Z,4.90
2023-05-05T01:04:24.919Z,4.90
2023-05-05T01:04:36.705Z,5.10
2023-05-05T01:04:49.138Z,5.30
2023-05-05T01:05:00.900Z,5.40
2023-05-05T01:05:12.848Z,5.30
2023-05-05T01:05:24.616Z,5.50
2023-05-05T01:05:37.825Z,5.60
2023-05-05T01:05:48.513Z,5.10
2023-05-05T01:05:59.226Z,4.80
2023-05-05T01:06:09.973Z,4.80
2023-05-05T01:06:21.651Z,5.00
2023-05-05T01:06:32.386Z,5.40
2023-05-05T01:06:43.156Z,5.40
2023-05-05T01:06:53.854Z,5.30
2023-05-05T01:07:06.043Z,5.00
2023-05-05T01:07:18.487Z,5.30
2023-05-05T01:07:30.668Z,5.20
2023-05-05T01:07:41.420Z,5.30
2023-05-05T01:07:53.617Z,5.40
2023-05-05T01:08:06.312Z,5.30
2023-05-05T01:08:19.969Z,5.80
2023-05-05T01:08:31.731Z,5.70
2023-05-05T01:08:43.425Z,5.50
2023-05-05T01:08:54.156Z,5.50
2023-05-05T01:09:06.412Z,5.20
2023-05-05T01:09:18.142Z,5.90
2023-05-05T01:09:31.341Z,5.90
2023-05-05T01:09:44.000Z,5.60
2023-05-05T01:10:11.064Z,5.10
2023-05-05T01:10:19.872Z,4.90
2023-05-05T01:10:27.709Z,5.00
2023-05-05T01:10:38.564Z,5.60
2023-05-05T01:10:50.221Z,5.70
2023-05-05T01:11:02.408Z,5.50
2023-05-05T01:11:13.158Z,5.40
2023-05-05T01:11:25.557Z,5.50
2023-05-05T01:11:36.314Z,5.50
2023-05-05T01:11:48.002Z,5.30
2023-05-05T01:11:58.718Z,5.40
2023-05-05T01:12:10.408Z,5.90
2023-05-05T01:12:21.179Z,6.20
2023-05-05T01:12:33.654Z,5.80
2023-05-05T01:12:44.386Z,5.80
2023-05-05T01:12:56.138Z,5.90
2023-05-05T01:13:06.985Z,5.90
2023-05-05T01:13:18.705Z,5.50
2023-05-05T01:13:31.647Z,5.20
2023-05-05T01:13:42.439Z,5.00
2023-05-05T01:13:53.179Z,5.20
2023-05-05T01:14:05.615Z,5.40
2023-05-05T01:14:17.754Z,5.50
2023-05-05T01:14:29.413Z,5.80
2023-05-05T01:14:41.888Z,5.40
2023-05-05T01:14:53.601Z,5.30
2023-05-05T01:15:05.353Z,5.60
2023-05-05T01:15:17.563Z,5.40
2023-05-05T01:15:29.748Z,5.60
2023-05-05T01:15:40.452Z,5.40
2023-05-05T01:15:51.222Z,5.30
2023-05-05T01:16:02.869Z,5.40
2023-05-05T01:16:15.332Z,5.60
2023-05-05T01:16:27.170Z,5.30
2023-05-05T01:16:39.638Z,5.00
2023-05-05T01:16:50.400Z,5.00
2023-05-05T01:17:01.119Z,5.30
2023-05-05T01:17:12.922Z,5.50
2023-05-05T01:17:24.692Z,5.10
2023-05-05T01:17:37.180Z,4.90
2023-05-05T01:17:50.398Z,5.20
2023-05-05T01:18:01.097Z,5.40
2023-05-05T01:18:12.806Z,5.40
2023-05-05T01:18:25.975Z,5.20
2023-05-05T01:18:38.411Z,5.40
2023-05-05T01:18:50.895Z,5.30
2023-05-05T01:19:04.045Z,5.40
2023-05-05T01:19:16.471Z,5.70
2023-05-05T01:19:28.399Z,5.70
2023-05-05T01:19:40.826Z,5.40
2023-05-05T01:19:52.539Z,5.20
2023-05-05T01:20:05.531Z,5.10
2023-05-05T01:20:17.724Z,5.40
2023-05-05T01:20:28.505Z,5.20
2023-05-05T01:20:40.176Z,5.40
2023-05-05T01:20:52.586Z,5.60
2023-05-05T01:21:05.022Z,6.00
2023-05-05T01:21:17.426Z,5.50
2023-05-05T01:21:29.859Z,5.30
2023-05-05T01:21:40.575Z,5.20
2023-05-05T01:21:53.716Z,5.90
2023-05-05T01:22:06.128Z,6.00
2023-05-05T01:22:16.820Z,5.40
2023-05-05T01:22:27.548Z,5.20
2023-05-05T01:22:38.258Z,5.30
2023-05-05T01:22:49.951Z,5.30
2023-05-05T01:23:00.662Z,5.60
2023-05-05T01:23:11.417Z,6.10
2023-05-05T01:23:23.132Z,6.20
2023-05-05T01:23:33.863Z,5.80
2023-05-05T01:23:46.302Z,5.60
2023-05-05T01:23:58.096Z,5.80
2023-05-05T01:24:09.009Z,5.70
2023-05-05T01:24:21.465Z,5.60
2023-05-05T01:24:32.232Z,5.70
2023-05-05T01:24:42.934Z,5.50
2023-05-05T01:24:53.689Z,5.40
2023-05-05T01:25:04.382Z,5.20
2023-05-05T01:25:16.092Z,5.30
2023-05-05T01:25:29.256Z,5.20
2023-05-05T01:25:40.959Z,5.50
2023-05-05T01:25:52.885Z,5.50
2023-05-05T01:26:05.846Z,5.20
2023-05-05T01:26:18.015Z,5.10
2023-05-05T01:26:29.737Z,5.00
2023-05-05T01:26:40.436Z,5.40
2023-05-05T01:26:52.359Z,5.20
2023-05-05T01:27:03.115Z,5.40
2023-05-05T01:27:14.795Z,5.40
2023-05-05T01:27:26.762Z,5.40
2023-05-05T01:27:37.460Z,5.10
2023-05-05T01:27:49.754Z,5.10
2023-05-05T01:28:00.531Z,5.40
2023-05-05T01:28:12.771Z,5.20
2023-05-05T01:28:23.471Z,5.20
2023-05-05T01:28:35.895Z,5.20
2023-05-05T01:28:49.044Z,5.30
2023-05-05T01:29:00.768Z,5.30
2023-05-05T01:29:13.175Z,5.50
2023-05-05T01:29:23.945Z,5.40
2023-05-05T01:29:36.342Z,5.10
2023-05-05T01:29:48.824Z,5.70
2023-05-05T01:29:59.508Z,6.00
2023-05-05T01:30:10.337Z,5.80
2023-05-05T01:30:21.111Z,5.70
2023-05-05T01:30:31.861Z,5.40
2023-05-05T01:30:43.641Z,5.10
2023-05-05T01:30:55.320Z,5.30
2023-05-05T01:31:06.032Z,5.30
2023-05-05T01:31:16.801Z,5.30
2023-05-05T01:31:29.802Z,5.40
2023-05-05T01:31:40.526Z,5.70
2023-05-05T01:31:51.319Z,5.30
2023-05-05T01:32:02.104Z,5.10
2023-05-05T01:32:13.731Z,5.20
2023-05-05T01:32:24.447Z,5.80
2023-05-05T01:32:36.184Z,6.00
2023-05-05T01:32:46.940Z,5.90
2023-05-05T01:32:59.122Z,5.60
2023-05-05T01:33:12.346Z,5.60
2023-05-05T01:33:23.051Z,5.70
2023-05-05T01:33:35.960Z,5.80
2023-05-05T01:33:47.653Z,5.40
2023-05-05T01:33:59.934Z,5.10
2023-05-05T01:34:11.857Z,5.10
2023-05-05T01:34:25.019Z,4.90
2023-05-05T01:34:37.433Z,5.20
2023-05-05T01:34:48.317Z,5.40
2023-05-05T01:35:01.028Z,5.60
2023-05-05T01:35:12.735Z,5.40
2023-05-05T01:35:25.140Z,5.50
2023-05-05T01:35:38.328Z,5.60
2023-05-05T01:35:50.530Z,5.50
2023-05-05T01:36:01.329Z,5.40
2023-05-05T01:36:13.776Z,5.00
2023-05-05T01:36:26.928Z,5.20
2023-05-05T01:36:37.672Z,5.40
2023-05-05T01:36:50.571Z,5.80
2023-05-05T01:37:01.269Z,5.80
2023-05-05T01:37:12.970Z,5.70
2023-05-05T01:37:25.409Z,5.70
2023-05-05T01:37:37.827Z,5.00
2023-05-05T01:37:50.300Z,5.00
2023-05-05T01:38:01.022Z,5.30
2023-05-05T01:38:12.736Z,5.00
2023-05-05T01:38:24.972Z,5.10
2023-05-05T01:38:37.678Z,5.40
2023-05-05T01:38:50.101Z,5.60
2023-05-05T01:39:02.553Z,5.60
2023-05-05T01:39:14.462Z,5.10
2023-05-05T01:39:26.876Z,5.20
2023-05-05T01:39:38.570Z,5.30
2023-05-05T01:39:49.300Z,5.40
2023-05-05T01:40:01.065Z,5.70
2023-05-05T01:40:12.732Z,5.60
2023-05-05T01:40:25.240Z,5.50
2023-05-05T01:40:36.887Z,5.30
2023-05-05T01:40:48.818Z,4.90
2023-05-05T01:41:00.469Z,5.00
2023-05-05T01:41:11.208Z,5.60
2023-05-05T01:41:21.908Z,5.80
2023-05-05T01:41:33.600Z,6.10
2023-05-05T01:41:45.308Z,5.60
2023-05-05T01:41:57.467Z,5.70
2023-05-05T01:42:09.200Z,5.50
2023-05-05T01:42:21.595Z,5.30
2023-05-05T01:42:32.292Z,5.20
2023-05-05T01:42:42.997Z,5.10
2023-05-05T01:42:54.711Z,4.90
2023-05-05T01:43:05.412Z,5.30
2023-05-05T01:43:17.591Z,5.30
2023-05-05T01:43:30.017Z,4.90
2023-05-05T01:43:42.435Z,5.00
2023-05-05T01:43:53.157Z,4.90
2023-05-05T01:44:03.863Z,5.10
2023-05-05T01:44:14.568Z,5.30
2023-05-05T01:44:25.301Z,5.30
2023-05-05T01:44:37.495Z,5.10
2023-05-05T01:44:48.271Z,5.30
2023-05-05T01:44:58.993Z,5.20
2023-05-05T01:45:10.689Z,5.20
2023-05-05T01:45:21.588Z,4.90
2023-05-05T01:45:32.420Z,4.90
2023-05-05T01:45:43.141Z,5.10
2023-05-05T01:45:55.578Z,5.30
2023-05-05T01:46:07.761Z,5.10
2023-05-05T01:46:18.483Z,5.10
2023-05-05T01:46:29.237Z,5.40
2023-05-05T01:46:39.947Z,5.40
2023-05-05T01:46:50.713Z,5.40
2023-05-05T01:47:02.456Z,5.20
2023-05-05T01:47:13.239Z,5.20
2023-05-05T01:47:25.709Z,5.70
2023-05-05T01:47:36.450Z,5.90
2023-05-05T01:47:47.197Z,6.00
2023-05-05T01:47:59.673Z,5.80
2023-05-05T01:48:11.351Z,5.60
2023-05-05T01:48:23.027Z,5.40
2023-05-05T01:48:33.773Z,5.00
2023-05-05T01:48:44.535Z,5.00
2023-05-05T01:48:56.990Z,5.00
2023-05-05T01:49:09.138Z,4.70
2023-05-05T01:49:22.838Z,4.90
2023-05-05T01:49:35.556Z,5.40
2023-05-05T01:49:47.964Z,5.50
2023-05-05T01:50:00.655Z,5.10
2023-05-05T01:50:12.381Z,5.10
2023-05-05T01:50:24.807Z,5.20
2023-05-05T01:50:36.547Z,5.20
2023-05-05T01:50:47.330Z,4.80
2023-05-05T01:50:58.030Z,4.70
2023-05-05T01:51:11.690Z,4.90
2023-05-05T01:51:22.426Z,5.10
2023-05-05T01:51:34.146Z,5.20
2023-05-05T01:51:46.531Z,4.90
2023-05-05T01:51:58.188Z,5.10
2023-05-05T01:52:08.980Z,5.20
2023-05-05T01:52:21.163Z,5.50
2023-05-05T01:52:34.362Z,5.30
2023-05-05T01:52:45.146Z,5.10
2023-05-05T01:52:55.873Z,4.80
2023-05-05T01:53:06.577Z,5.10
2023-05-05T01:53:17.282Z,5.30
2023-05-05T01:53:29.988Z,5.10
2023-05-05T01:53:42.394Z,5.00
2023-05-05T01:53:54.090Z,4.80
2023-05-05T01:54:04.792Z,5.10
2023-05-05T01:54:15.546Z,5.40
2023-05-05T01:54:27.839Z,5.00
2023-05-05T01:54:39.480Z,5.30
2023-05-05T01:54:52.210Z,5.00
2023-05-05T01:55:04.626Z,5.00
2023-05-05T01:55:16.312Z,5.20
2023-05-05T01:55:27.989Z,5.20
2023-05-05T01:55:40.181Z,5.60
2023-05-05T01:55:52.692Z,5.50
2023-05-05T01:56:04.443Z,5.60
2023-05-05T01:56:16.158Z,5.20
2023-05-05T01:56:27.836Z,5.40
2023-05-05T01:56:40.101Z,5.30
2023-05-05T01:56:53.190Z,5.40
2023-05-05T01:57:05.351Z,5.10
2023-05-05T01:57:17.805Z,5.30
2023-05-05T01:57:29.524Z,5.80
2023-05-05T01:57:40.258Z,5.20
2023-05-05T01:57:52.081Z,5.50
2023-05-05T01:58:04.509Z,5.60
2023-05-05T01:58:15.204Z,5.50
2023-05-05T01:58:27.607Z,5.50
2023-05-05T01:58:39.366Z,6.10
2023-05-05T01:58:51.063Z,5.70
2023-05-05T01:59:03.999Z,5.30
2023-05-05T01:59:14.755Z,5.70
2023-05-05T01:59:25.499Z,5.80
2023-05-05T01:59:38.638Z,5.40
2023-05-05T01:59:50.355Z,5.00
2023-05-05T02:00:02.580Z,5.60
2023-05-05T02:00:13.347Z,6.00
2023-05-05T02:00:25.017Z,5.90
2023-05-05T02:00:35.788Z,5.70
2023-05-05T02:00:46.566Z,5.80
2023-05-05T02:00:58.287Z,5.60
2023-05-05T02:01:10.509Z,5.70
2023-05-05T02:01:22.164Z,5.60
2023-05-05T02:01:32.957Z,5.90
2023-05-05T02:01:43.726Z,5.10
2023-05-05T02:01:55.882Z,5.20
2023-05-05T02:02:08.376Z,5.10
2023-05-05T02:02:19.075Z,5.20
2023-05-05T02:02:30.829Z,5.00
2023-05-05T02:02:41.663Z,5.00
2023-05-05T02:02:54.246Z,5.40
2023-05-05T02:03:05.998Z,5.40
2023-05-05T02:03:18.453Z,5.70
2023-05-05T02:03:30.924Z,5.50
2023-05-05T02:03:41.626Z,5.20
2023-05-05T02:03:52.375Z,5.40
2023-05-05T02:04:04.107Z,5.50
2023-05-05T02:04:16.521Z,6.30
2023-05-05T02:04:27.238Z,6.30
2023-05-05T02:04:37.959Z,6.20
2023-05-05T02:04:48.706Z,6.10
2023-05-05T02:05:00.963Z,5.90
2023-05-05T02:05:11.733Z,5.90
2023-05-05T02:05:22.451Z,5.50
2023-05-05T02:05:33.230Z,5.40
2023-05-05T02:05:45.620Z,5.50
2023-05-05T02:05:58.079Z,5.50
2023-05-05T02:06:08.774Z,5.30
2023-05-05T02:06:20.475Z,5.80
2023-05-05T02:06:31.458Z,5.70
2023-05-05T02:06:43.188Z,5.90
2023-05-05T02:06:53.900Z,5.80
2023-05-05T02:07:05.579Z,5.70
2023-05-05T02:07:18.045Z,5.60
2023-05-05T02:07:28.788Z,6.10
2023-05-05T02:07:39.493Z,6.50
2023-05-05T02:07:50.185Z,6.30
2023-05-05T02:08:00.936Z,5.90
2023-05-05T02:08:12.658Z,5.60
2023-05-05T02:08:24.423Z,5.30
2023-05-05T02:08:36.133Z,5.40
2023-05-05T02:08:47.813Z,5.90
2023-05-05T02:09:00.259Z,6.30
2023-05-05T02:09:12.690Z,6.50
2023-05-05T02:09:23.424Z,6.00
2023-05-05T02:09:35.132Z,6.10
2023-05-05T02:09:45.841Z,6.20
2023-05-05T02:09:57.534Z,6.30
2023-05-05T02:10:10.740Z,5.80
2023-05-05T02:10:22.927Z,5.20
2023-05-05T02:10:34.633Z,5.20
2023-05-05T02:10:46.805Z,6.00
2023-05-05T02:10:57.542Z,6.10
2023-05-05T02:11:09.336Z,6.10
2023-05-05T02:11:21.534Z,5.20
2023-05-05T02:11:35.220Z,5.70
2023-05-05T02:11:45.927Z,5.80
2023-05-05T02:11:58.371Z,5.60
2023-05-05T02:12:09.064Z,5.80
2023-05-05T02:12:21.459Z,6.00
2023-05-05T02:12:32.223Z,5.80
2023-05-05T02:12:43.942Z,5.50
2023-05-05T02:12:56.709Z,5.80
2023-05-05T02:13:07.532Z,5.40
2023-05-05T02:13:18.475Z,5.00
2023-05-05T02:13:30.207Z,5.50
2023-05-05T02:13:43.154Z,5.70
2023-05-05T02:13:54.883Z,5.90
2023-05-05T02:14:06.562Z,6.20
2023-05-05T02:14:18.225Z,6.10
2023-05-05T02:14:29.952Z,6.00
2023-05-05T02:14:42.345Z,6.30
2023-05-05T02:14:56.044Z,6.40
2023-05-05T02:15:06.740Z,6.60
2023-05-05T02:15:17.419Z,6.30
2023-05-05T02:15:30.144Z,6.00
2023-05-05T02:15:42.521Z,5.20
2023-05-05T02:15:55.742Z,5.20
2023-05-05T02:16:06.529Z,5.50
2023-05-05T02:16:17.247Z,6.40
2023-05-05T02:16:27.914Z,6.40
2023-05-05T02:16:40.078Z,6.20
2023-05-05T02:16:52.505Z,5.60
2023-05-05T02:17:04.815Z,5.70
2023-05-05T02:17:16.742Z,5.70
2023-05-05T02:17:27.510Z,5.60
2023-05-05T02:17:38.201Z,5.50
2023-05-05T02:17:51.968Z,5.60
2023-05-05T02:18:02.743Z,6.00
2023-05-05T02:18:13.469Z,6.30
2023-05-05T02:18:25.142Z,6.10
2023-05-05T02:18:36.807Z,5.30
2023-05-05T02:18:49.091Z,5.30
2023-05-05T02:19:01.262Z,5.60
2023-05-05T02:19:11.950Z,5.50
2023-05-05T02:19:24.857Z,5.80
2023-05-05T02:19:36.646Z,6.00
2023-05-05T02:19:48.806Z,6.10
2023-05-05T02:20:00.528Z,5.50
2023-05-05T02:20:12.981Z,5.40
2023-05-05T02:20:24.695Z,5.30
2023-05-05T02:20:36.380Z,5.30
2023-05-05T02:20:47.128Z,5.50
2023-05-05T02:20:57.853Z,5.50
2023-05-05T02:21:09.581Z,5.90
2023-05-05T02:21:22.777Z,5.10
2023-05-05T02:21:35.933Z,5.10
2023-05-05T02:21:47.640Z,5.50
2023-05-05T02:22:00.065Z,5.50
2023-05-05T02:22:12.271Z,5.40
2023-05-05T02:22:22.963Z,5.70
2023-05-05T02:22:33.685Z,6.10
2023-05-05T02:22:45.423Z,5.80
2023-05-05T02:22:57.138Z,5.90
2023-05-05T02:23:10.395Z,5.90
2023-05-05T02:23:22.097Z,5.40
2023-05-05T02:23:32.806Z,5.50
2023-05-05T02:23:43.523Z,5.50
2023-05-05T02:23:55.932Z,5.60
2023-05-05T02:24:06.632Z,5.30
2023-05-05T02:24:17.343Z,5.20
2023-05-05T02:24:29.002Z,5.40
2023-05-05T02:24:41.399Z,5.70
2023-05-05T02:24:53.883Z,5.20
2023-05-05T02:25:04.641Z,5.30
2023-05-05T02:25:15.350Z,5.60
2023-05-05T02:25:27.770Z,5.70
2023-05-05T02:25:38.560Z,5.90
2023-05-05T02:25:49.224Z,5.80
2023-05-05T02:25:59.985Z,5.50
2023-05-05T02:26:11.671Z,5.40
2023-05-05T02:26:24.352Z,5.30
2023-05-05T02:26:35.098Z,5.40
2023-05-05T02:26:45.833Z,5.00
2023-05-05T02:26:57.517Z,5.00
2023-05-05T02:27:10.042Z,5.00
2023-05-05T02:27:20.745Z,5.80
2023-05-05T02:27:31.496Z,5.90
2023-05-05T02:27:42.463Z,6.10
2023-05-05T02:27:53.263Z,5.70
2023-05-05T02:28:04.032Z,5.40
2023-05-05T02:28:16.225Z,5.40
2023-05-05T02:28:26.983Z,5.30
2023-05-05T02:28:37.713Z,5.50
2023-05-05T02:28:49.413Z,6.00
2023-05-05T02:29:01.815Z,6.00
2023-05-05T02:29:13.472Z,5.80
2023-05-05T02:29:24.224Z,5.80
2023-05-05T02:29:34.922Z,6.10
2023-05-05T02:29:46.630Z,6.20
2023-05-05T02:29:57.374Z,5.50
2023-05-05T02:30:08.296Z,5.30
2023-05-05T02:30:20.884Z,5.20
2023-05-05T02:30:32.542Z,5.50
2023-05-05T02:30:44.214Z,5.60
2023-05-05T02:30:55.007Z,5.50
2023-05-05T02:31:05.771Z,5.10
2023-05-05T02:31:18.177Z,5.40
2023-05-05T02:31:30.623Z,5.40
2023-05-05T02:31:43.655Z,5.60
2023-05-05T02:31:56.819Z,5.90
2023-05-05T02:32:09.209Z,5.70
2023-05-05T02:32:21.704Z,5.20
2023-05-05T02:32:32.430Z,5.10
2023-05-05T02:32:44.961Z,5.40
2023-05-05T02:32:55.741Z,5.50
2023-05-05T02:33:07.446Z,5.50
2023-05-05T02:33:19.859Z,5.20
2023-05-05T02:33:30.596Z,6.00
2023-05-05T02:33:41.323Z,5.90
2023-05-05T02:33:53.721Z,5.70
2023-05-05T02:34:04.429Z,5.60
2023-05-05T02:34:16.894Z,5.00
2023-05-05T02:34:28.550Z,5.20